Terminal Aerodrome Forecast
Issued by NWS Greer, SC

Home | Current Version | Previous Version | Text Only | Print | Product List | Glossary On
Versions: 1 2 3 4 5 6 7 8 9 10 11 12 13 14 15 16 17 18 19 20 21 22 23 24 25 26 27 28 29 30 31 32 33 34 35 36 37
000
FTUS42 KGSP 202337
TAFCLT
TAF
KCLT 202337Z 2100/2206 23005KT P6SM FEW050 FEW090
     FM210300 14004KT 6SM BR BKN030
     FM210700 17006KT 5SM BR BKN005
     FM210800 VRB02KT 1SM BR OVC003
     FM211200 18004KT 3/4SM BR OVC004
     FM211600 20007KT P6SM OVC008
     FM212200 20006KT P6SM SCT020 BKN040=

USA.gov is the U.S. government's official web portal to all federal, state and local government web resources and services.